Time;durP1;ratioP1;P1;durP2;ratioP2;P2;SDS_P1;SDS_P2;PMS_P1;PMS_P2;Temp;Humidity;BMP_temperature;BMP_pressure;BME280_temperature;BME280_humidity;BME280_pressure;Samples;Min_cycle;Max_cycle;Signal;HPM_P1;HPM_P2
2023/09/09 00:00:09;;;;;;;9.23;7.87;;;18.30;99.90;;;;;;5015114;28;20461;-58
2023/09/09 00:02:36;;;;;;;9.20;8.23;;;18.30;99.90;;;;;;5015300;28;20877;-58
2023/09/09 00:05:04;;;;;;;9.20;8.30;;;18.30;99.90;;;;;;5014853;28;20437;-59
2023/09/09 00:07:30;;;;;;;7.83;7.13;;;18.30;99.90;;;;;;5015217;28;20525;-58
2023/09/09 00:09:57;;;;;;;12.33;8.30;;;18.20;99.90;;;;;;5015079;28;20501;-60
2023/09/09 00:12:25;;;;;;;9.50;7.60;;;18.20;99.90;;;;;;5015087;28;20453;-58
2023/09/09 00:14:53;;;;;;;8.87;7.97;;;18.20;99.90;;;;;;5015126;28;20454;-59
2023/09/09 00:17:20;;;;;;;8.33;7.57;;;18.10;99.90;;;;;;5015144;28;20473;-60
2023/09/09 00:19:49;;;;;;;8.80;8.00;;;18.10;99.90;;;;;;5014599;28;20481;-59
2023/09/09 00:22:17;;;;;;;8.60;7.70;;;18.00;99.90;;;;;;5014889;28;20456;-60
2023/09/09 00:24:43;;;;;;;9.50;8.50;;;18.00;99.90;;;;;;5015012;28;20864;-59
2023/09/09 00:27:11;;;;;;;8.73;7.93;;;18.00;99.90;;;;;;5015617;28;20932;-60
2023/09/09 00:29:39;;;;;;;8.80;8.00;;;17.90;99.90;;;;;;5019186;28;20568;-60
2023/09/09 00:32:06;;;;;;;8.60;7.40;;;17.90;99.90;;;;;;5019095;28;20445;-58
2023/09/09 00:34:34;;;;;;;9.20;8.30;;;17.80;99.90;;;;;;5018625;28;20452;-59
2023/09/09 00:37:03;;;;;;;11.43;7.63;;;17.90;99.90;;;;;;5018155;28;20478;-59
2023/09/09 00:39:30;;;;;;;8.07;7.30;;;17.80;99.90;;;;;;5019144;28;20548;-59
2023/09/09 00:41:56;;;;;;;7.77;7.03;;;17.80;99.90;;;;;;5018545;28;20449;-59
2023/09/09 00:44:23;;;;;;;8.73;7.63;;;17.80;99.90;;;;;;5018474;28;20817;-59
2023/09/09 00:46:52;;;;;;;8.10;7.30;;;17.80;99.90;;;;;;5018017;28;20449;-57
2023/09/09 00:49:20;;;;;;;11.73;7.70;;;17.80;99.90;;;;;;5017977;28;20569;-57
2023/09/09 00:51:46;;;;;;;8.23;7.40;;;17.70;99.90;;;;;;5017705;28;20939;-57
2023/09/09 00:54:14;;;;;;;11.07;8.60;;;17.70;99.90;;;;;;5017400;28;20449;-57
2023/09/09 00:56:41;;;;;;;10.33;8.10;;;17.70;99.90;;;;;;5017997;28;20864;-57
2023/09/09 00:59:10;;;;;;;9.10;7.90;;;17.70;99.90;;;;;;5018098;28;20457;-58
2023/09/09 01:01:37;;;;;;;9.87;8.10;;;17.70;99.90;;;;;;5017683;28;20523;-57
2023/09/09 01:04:06;;;;;;;8.63;7.47;;;17.70;99.90;;;;;;5017480;28;20939;-57
2023/09/09 01:06:33;;;;;;;9.03;7.80;;;17.70;99.90;;;;;;5017175;28;20817;-57
2023/09/09 01:09:06;;;;;;;8.87;7.80;;;17.80;99.90;;;;;;5018614;28;20470;-57
2023/09/09 01:11:33;;;;;;;8.13;7.33;;;17.80;99.90;;;;;;5017571;28;20430;-58
2023/09/09 01:14:00;;;;;;;9.00;8.10;;;17.80;99.90;;;;;;5017867;28;20445;-57
2023/09/09 01:16:27;;;;;;;9.57;8.03;;;17.70;99.90;;;;;;5018521;28;20450;-55
2023/09/09 01:18:54;;;;;;;10.40;7.47;;;17.70;99.90;;;;;;5018582;28;20477;-56
2023/09/09 01:21:25;;;;;;;11.57;6.93;;;17.70;99.90;;;;;;5018582;28;20429;-56
2023/09/09 01:23:53;;;;;;;8.10;7.23;;;17.70;99.90;;;;;;5017839;28;20792;-55
2023/09/09 01:26:20;;;;;;;9.53;7.80;;;17.80;99.90;;;;;;5018032;28;20951;-55
2023/09/09 01:28:46;;;;;;;9.53;8.07;;;17.70;99.90;;;;;;5017745;28;20465;-56
2023/09/09 01:31:13;;;;;;;7.97;7.27;;;17.80;99.90;;;;;;5018093;28;20438;-55
2023/09/09 01:33:40;;;;;;;8.30;7.10;;;17.70;99.90;;;;;;5017324;28;20496;-55
2023/09/09 01:36:08;;;;;;;8.03;7.00;;;17.70;99.90;;;;;;5017744;28;20441;-55
2023/09/09 01:38:35;;;;;;;9.10;7.50;;;17.60;99.90;;;;;;5016939;28;20473;-56
2023/09/09 01:41:03;;;;;;;8.70;7.80;;;17.60;99.90;;;;;;5017253;28;20449;-56
2023/09/09 01:43:30;;;;;;;9.13;7.20;;;17.60;99.90;;;;;;5018435;28;20446;-56
2023/09/09 01:45:57;;;;;;;8.67;7.87;;;17.60;99.90;;;;;;5017771;28;20449;-56
2023/09/09 01:48:25;;;;;;;8.60;7.73;;;17.50;99.90;;;;;;5017884;28;20445;-57
2023/09/09 01:50:52;;;;;;;8.87;7.97;;;17.50;99.90;;;;;;5017800;28;20445;-55
2023/09/09 01:53:19;;;;;;;8.40;7.60;;;17.60;99.90;;;;;;5017573;28;20932;-55
2023/09/09 01:55:45;;;;;;;9.30;8.30;;;17.60;99.90;;;;;;5018219;28;20461;-57
2023/09/09 01:58:15;;;;;;;8.70;7.80;;;17.50;99.90;;;;;;5017453;28;20485;-55
2023/09/09 02:00:42;;;;;;;8.30;7.40;;;17.50;99.90;;;;;;5017303;28;20465;-56
2023/09/09 02:03:09;;;;;;;11.37;8.07;;;17.50;99.90;;;;;;5017350;28;20446;-56
2023/09/09 02:05:35;;;;;;;8.13;7.43;;;17.50;99.90;;;;;;5017701;28;20442;-56
2023/09/09 02:08:02;;;;;;;8.57;7.57;;;17.40;99.90;;;;;;5017445;28;20898;-56
2023/09/09 02:10:29;;;;;;;8.90;7.70;;;17.40;99.90;;;;;;5017517;28;20473;-56
2023/09/09 02:12:56;;;;;;;10.77;8.57;;;17.40;99.90;;;;;;5016478;28;20446;-56
2023/09/09 02:15:24;;;;;;;8.70;7.43;;;17.40;99.90;;;;;;5016813;28;20444;-57
2023/09/09 02:17:51;;;;;;;7.87;7.17;;;17.40;99.90;;;;;;5017239;28;20485;-57
2023/09/09 02:20:18;;;;;;;10.97;8.03;;;17.40;99.90;;;;;;5017112;28;20477;-56
2023/09/09 02:22:45;;;;;;;8.87;7.47;;;17.40;99.90;;;;;;5017303;28;20453;-56
2023/09/09 02:25:11;;;;;;;8.43;7.70;;;17.40;99.90;;;;;;5017343;28;20850;-57
2023/09/09 02:27:38;;;;;;;8.00;7.20;;;17.40;99.90;;;;;;5017050;28;20445;-56
2023/09/09 02:30:06;;;;;;;11.00;7.60;;;17.40;99.90;;;;;;5017153;28;20466;-56
2023/09/09 02:32:34;;;;;;;8.80;7.90;;;17.40;99.90;;;;;;5016975;28;20438;-56
2023/09/09 02:35:01;;;;;;;8.53;7.70;;;17.40;99.90;;;;;;5016586;28;20457;-55
2023/09/09 02:37:28;;;;;;;9.33;7.73;;;17.40;99.90;;;;;;5015806;28;20556;-55
2023/09/09 02:39:54;;;;;;;8.53;7.70;;;17.30;99.90;;;;;;5016190;28;20971;-56
2023/09/09 02:42:23;;;;;;;8.00;7.00;;;17.30;99.90;;;;;;5016828;28;20442;-55
2023/09/09 02:44:50;;;;;;;9.90;8.13;;;17.30;99.90;;;;;;5017020;28;20446;-56
2023/09/09 02:47:17;;;;;;;11.13;8.13;;;17.30;99.90;;;;;;5016798;28;20441;-55
2023/09/09 02:49:46;;;;;;;9.23;8.33;;;17.20;99.90;;;;;;5016777;28;20476;-55
2023/09/09 02:52:13;;;;;;;9.13;7.50;;;17.20;99.90;;;;;;5015862;28;20453;-55
2023/09/09 02:54:40;;;;;;;7.40;6.70;;;17.20;99.90;;;;;;5016544;28;20453;-55
2023/09/09 02:57:07;;;;;;;8.50;7.60;;;17.20;99.90;;;;;;5016372;28;20445;-55
2023/09/09 02:59:35;;;;;;;10.53;7.63;;;17.20;99.90;;;;;;5016228;28;20480;-56
2023/09/09 03:02:02;;;;;;;10.40;7.40;;;17.20;99.90;;;;;;5016814;28;20453;-55
2023/09/09 03:04:29;;;;;;;8.03;7.30;;;17.20;99.90;;;;;;5016692;28;20437;-55
2023/09/09 03:06:57;;;;;;;9.27;7.70;;;17.10;99.90;;;;;;5017411;28;20454;-55
2023/09/09 03:09:25;;;;;;;11.77;7.60;;;17.10;99.90;;;;;;5016062;28;20462;-56
2023/09/09 03:11:53;;;;;;;7.73;7.03;;;17.10;99.90;;;;;;5016769;28;20537;-55
2023/09/09 03:14:20;;;;;;;10.63;7.97;;;17.10;99.90;;;;;;5015712;28;20450;-55
2023/09/09 03:16:47;;;;;;;8.77;7.77;;;17.10;99.90;;;;;;5016140;28;20500;-55
2023/09/09 03:19:13;;;;;;;9.47;8.37;;;17.10;99.90;;;;;;5015387;28;20489;-56
2023/09/09 03:21:40;;;;;;;9.50;7.60;;;17.10;99.90;;;;;;5016645;28;20437;-55
2023/09/09 03:24:08;;;;;;;8.10;7.40;;;17.10;99.90;;;;;;5017204;28;20446;-55
2023/09/09 03:26:35;;;;;;;8.10;7.30;;;17.10;99.90;;;;;;5017402;28;20438;-56
2023/09/09 03:29:02;;;;;;;8.03;7.33;;;17.10;99.90;;;;;;5017332;28;20462;-55
2023/09/09 03:31:29;;;;;;;8.60;7.20;;;17.10;99.90;;;;;;5016681;28;20449;-54
2023/09/09 03:33:56;;;;;;;8.53;7.50;;;17.10;99.90;;;;;;5016973;28;20449;-56
2023/09/09 03:36:23;;;;;;;6.93;6.33;;;17.10;99.90;;;;;;5016983;28;20445;-55
2023/09/09 03:38:49;;;;;;;7.73;6.93;;;17.00;99.90;;;;;;5016841;28;20497;-55
2023/09/09 03:41:18;;;;;;;10.50;7.20;;;17.00;99.90;;;;;;5016556;28;20442;-56
2023/09/09 03:43:44;;;;;;;9.33;7.33;;;17.00;99.90;;;;;;5016014;28;20472;-55
2023/09/09 03:46:11;;;;;;;9.57;7.30;;;17.00;99.90;;;;;;5016348;28;20446;-55
2023/09/09 03:48:38;;;;;;;8.30;7.50;;;17.00;99.90;;;;;;5015979;28;20839;-57
2023/09/09 03:51:04;;;;;;;10.23;7.40;;;17.00;99.90;;;;;;5016003;28;20446;-55
2023/09/09 03:53:31;;;;;;;7.10;6.40;;;16.90;99.90;;;;;;5015986;28;20438;-55
2023/09/09 03:56:00;;;;;;;8.07;6.90;;;16.90;99.90;;;;;;5015893;28;20487;-56
2023/09/09 03:58:28;;;;;;;9.80;7.67;;;16.90;99.90;;;;;;5015899;28;20485;-55
2023/09/09 04:01:04;;;;;;;7.77;7.00;;;16.90;99.90;;;;;;5015889;28;20437;-55
2023/09/09 04:03:33;;;;;;;8.17;7.43;;;16.90;99.90;;;;;;5014865;28;20911;-55
2023/09/09 04:06:00;;;;;;;8.60;7.67;;;16.90;99.90;;;;;;5016153;28;20453;-55
2023/09/09 04:08:28;;;;;;;8.17;7.37;;;16.90;99.90;;;;;;5015581;28;20438;-56
2023/09/09 04:12:11;;;;;;;8.93;8.03;;;16.90;99.90;;;;;;5113524;27;20544;-55
2023/09/09 04:14:40;;;;;;;10.83;8.30;;;16.90;99.90;;;;;;5113070;28;20445;-56
2023/09/09 04:17:07;;;;;;;8.10;7.40;;;16.90;99.90;;;;;;5113004;28;20812;-54
2023/09/09 04:19:34;;;;;;;9.57;8.57;;;16.90;99.90;;;;;;5113340;28;20514;-55
2023/09/09 04:22:01;;;;;;;9.10;6.60;;;16.90;99.90;;;;;;5112365;28;20437;-54
2023/09/09 04:24:28;;;;;;;8.53;7.63;;;16.90;99.90;;;;;;5112947;28;20438;-55
2023/09/09 04:26:54;;;;;;;9.30;8.07;;;16.90;99.90;;;;;;5113058;28;20437;-54
2023/09/09 04:29:22;;;;;;;8.73;7.77;;;16.80;99.90;;;;;;5112630;28;20461;-56
2023/09/09 04:31:49;;;;;;;10.10;7.50;;;16.80;99.90;;;;;;5112637;28;20473;-55
2023/09/09 04:34:16;;;;;;;8.60;7.90;;;16.80;99.90;;;;;;5112333;28;20441;-52
2023/09/09 04:36:45;;;;;;;7.57;6.77;;;16.80;99.90;;;;;;5112326;28;20453;-55
2023/09/09 04:39:13;;;;;;;10.93;7.37;;;16.80;99.90;;;;;;5111932;28;20906;-56
2023/09/09 04:41:40;;;;;;;8.30;7.50;;;16.80;99.90;;;;;;5111813;28;20800;-56
2023/09/09 04:44:07;;;;;;;9.00;7.43;;;16.80;99.90;;;;;;5111960;28;20441;-56
2023/09/09 04:46:35;;;;;;;8.50;7.60;;;16.80;99.90;;;;;;5111953;28;20444;-56
2023/09/09 04:49:03;;;;;;;9.50;7.37;;;16.80;99.90;;;;;;5112111;28;20484;-56
2023/09/09 04:51:29;;;;;;;10.77;8.20;;;16.80;99.90;;;;;;5111705;28;20477;-57
2023/09/09 04:53:56;;;;;;;8.60;7.70;;;16.80;99.90;;;;;;5111905;28;20950;-56
2023/09/09 04:56:23;;;;;;;8.43;7.63;;;16.80;99.90;;;;;;5111998;28;20437;-57
2023/09/09 04:58:50;;;;;;;9.60;7.53;;;16.80;99.90;;;;;;5111921;28;20452;-56
2023/09/09 05:01:17;;;;;;;8.30;7.50;;;16.80;99.90;;;;;;5112284;28;20449;-55
2023/09/09 05:03:45;;;;;;;8.20;7.17;;;16.80;99.90;;;;;;5112349;28;20433;-56
2023/09/09 05:06:12;;;;;;;8.37;7.60;;;16.80;99.90;;;;;;5112342;28;20444;-56
2023/09/09 05:08:39;;;;;;;8.40;7.40;;;16.90;99.90;;;;;;5112388;28;20465;-56
2023/09/09 05:11:05;;;;;;;8.40;7.60;;;16.80;99.90;;;;;;5111815;28;20477;-55
2023/09/09 05:13:32;;;;;;;7.27;6.27;;;16.90;99.90;;;;;;5111995;28;20966;-56
2023/09/09 05:15:59;;;;;;;8.30;7.10;;;16.90;99.90;;;;;;5112705;28;20454;-56
2023/09/09 05:18:26;;;;;;;8.43;6.83;;;16.90;99.90;;;;;;5112523;28;20452;-57
2023/09/09 05:20:54;;;;;;;7.80;7.10;;;17.00;99.90;;;;;;5086204;22;20499;-57
2023/09/09 05:23:20;;;;;;;8.50;7.70;;;17.00;99.90;;;;;;5037326;28;20432;-57
2023/09/09 05:25:48;;;;;;;7.93;7.07;;;17.00;99.90;;;;;;5036088;28;20436;-58
2023/09/09 05:28:14;;;;;;;8.73;7.83;;;17.10;99.90;;;;;;5035708;28;20798;-58
2023/09/09 05:30:41;;;;;;;8.00;7.20;;;17.20;99.90;;;;;;5035804;28;20481;-57
2023/09/09 05:33:08;;;;;;;7.80;7.10;;;17.20;99.90;;;;;;5035566;28;20935;-58
2023/09/09 05:35:35;;;;;;;10.03;6.93;;;17.30;99.90;;;;;;5036057;28;20440;-57
2023/09/09 05:38:03;;;;;;;8.47;7.57;;;17.30;99.90;;;;;;5035873;28;20449;-57
2023/09/09 05:40:30;;;;;;;8.93;7.20;;;17.40;99.90;;;;;;5035764;28;20472;-58
2023/09/09 05:42:57;;;;;;;9.87;7.93;;;17.50;99.90;;;;;;5035682;28;20445;-57
2023/09/09 05:45:23;;;;;;;11.80;7.07;;;17.50;99.90;;;;;;5035574;28;20445;-58
2023/09/09 05:47:50;;;;;;;7.60;6.90;;;17.60;99.90;;;;;;5035694;28;20441;-57
2023/09/09 05:50:17;;;;;;;7.50;6.80;;;17.70;99.90;;;;;;5035406;28;20476;-58
2023/09/09 05:52:43;;;;;;;7.03;6.33;;;17.80;99.90;;;;;;5035523;28;20433;-57
2023/09/09 05:55:11;;;;;;;7.60;6.90;;;17.80;99.90;;;;;;5035539;28;20926;-57
2023/09/09 05:57:39;;;;;;;7.40;6.70;;;17.90;99.90;;;;;;5035428;28;20441;-58
2023/09/09 06:00:09;;;;;;;9.43;7.30;;;18.00;99.90;;;;;;5035373;28;20484;-57
2023/09/09 06:02:35;;;;;;;7.90;7.20;;;18.10;99.90;;;;;;5035360;28;20448;-58
2023/09/09 06:05:02;;;;;;;10.17;6.57;;;18.20;99.90;;;;;;5035114;28;20961;-58
2023/09/09 06:07:29;;;;;;;7.00;6.40;;;18.20;99.90;;;;;;5035449;28;20437;-56
2023/09/09 06:09:56;;;;;;;7.83;6.90;;;18.30;99.90;;;;;;5035489;28;20574;-58
2023/09/09 06:12:24;;;;;;;8.30;7.50;;;18.40;99.90;;;;;;5035687;28;20484;-58
2023/09/09 06:14:50;;;;;;;8.40;6.20;;;18.50;99.90;;;;;;5034980;28;20985;-57
2023/09/09 06:17:17;;;;;;;7.33;6.57;;;18.50;99.90;;;;;;5035585;28;20445;-57
2023/09/09 06:19:44;;;;;;;8.00;6.77;;;18.70;99.90;;;;;;5034742;28;21000;-57
2023/09/09 06:22:11;;;;;;;9.83;6.57;;;18.70;99.90;;;;;;5034827;28;20436;-58
2023/09/09 06:24:37;;;;;;;6.80;6.20;;;18.80;99.90;;;;;;5034982;28;20441;-57
2023/09/09 06:27:04;;;;;;;8.10;7.20;;;18.90;99.90;;;;;;5034767;28;20958;-57
2023/09/09 06:29:33;;;;;;;7.53;6.53;;;19.00;99.90;;;;;;5035220;28;20465;-57
2023/09/09 06:32:00;;;;;;;7.07;6.40;;;19.10;99.90;;;;;;5036042;28;20492;-57
2023/09/09 06:34:27;;;;;;;8.03;6.10;;;19.20;99.90;;;;;;5039722;28;20441;-57
2023/09/09 06:36:53;;;;;;;7.90;7.00;;;19.20;99.90;;;;;;5035864;28;20448;-57
2023/09/09 06:39:20;;;;;;;8.13;6.60;;;19.30;99.90;;;;;;5034943;28;20467;-58
2023/09/09 06:41:47;;;;;;;8.27;7.47;;;19.40;99.90;;;;;;5035015;28;20943;-57
2023/09/09 06:44:14;;;;;;;12.50;7.60;;;19.50;99.90;;;;;;5034770;28;20954;-57
2023/09/09 06:46:42;;;;;;;7.20;6.50;;;19.60;99.90;;;;;;5034596;28;20444;-58
2023/09/09 06:49:08;;;;;;;6.97;6.37;;;19.70;99.90;;;;;;5034640;28;20452;-57
2023/09/09 06:51:35;;;;;;;6.20;5.60;;;19.80;99.90;;;;;;5034750;28;20482;-58
2023/09/09 06:54:02;;;;;;;8.00;5.83;;;19.90;99.90;;;;;;5035642;28;20464;-58
2023/09/09 06:56:29;;;;;;;6.97;6.37;;;20.00;99.90;;;;;;5035143;28;20441;-59
2023/09/09 06:58:55;;;;;;;7.53;6.83;;;20.10;99.90;;;;;;5034835;28;20471;-58
2023/09/09 07:01:22;;;;;;;10.57;6.90;;;20.20;99.90;;;;;;5034345;28;20445;-58
2023/09/09 07:03:50;;;;;;;7.53;6.50;;;20.30;99.80;;;;;;5034750;28;20810;-58
2023/09/09 07:06:17;;;;;;;6.53;5.93;;;20.40;99.50;;;;;;5034432;28;20448;-58
2023/09/09 07:08:45;;;;;;;7.57;6.23;;;20.50;99.20;;;;;;5034075;28;20467;-58
2023/09/09 07:11:13;;;;;;;8.03;6.60;;;20.50;99.00;;;;;;5033796;28;20491;-58
2023/09/09 07:13:39;;;;;;;6.40;5.87;;;20.60;98.80;;;;;;5033926;28;20437;-58
2023/09/09 07:16:06;;;;;;;6.77;6.07;;;20.70;98.50;;;;;;5033952;28;20472;-60
2023/09/09 07:18:33;;;;;;;6.67;6.07;;;20.80;98.20;;;;;;5033692;28;20445;-60
2023/09/09 07:21:01;;;;;;;8.23;6.53;;;20.90;97.80;;;;;;5033196;28;20472;-57
2023/09/09 07:23:28;;;;;;;6.60;5.80;;;21.00;97.40;;;;;;5033733;28;20445;-59
2023/09/09 07:25:55;;;;;;;6.17;5.57;;;21.20;97.10;;;;;;5033601;28;20440;-59
2023/09/09 07:28:23;;;;;;;7.00;6.30;;;21.30;96.80;;;;;;5033396;28;20795;-58
2023/09/09 07:30:50;;;;;;;7.33;5.50;;;21.40;96.40;;;;;;5033330;28;20475;-58
2023/09/09 07:33:18;;;;;;;6.20;5.50;;;21.50;96.10;;;;;;5033399;28;20465;-60
2023/09/09 07:35:45;;;;;;;6.87;6.17;;;21.50;95.70;;;;;;5033322;28;20453;-60
2023/09/09 07:38:13;;;;;;;7.70;6.17;;;21.70;95.50;;;;;;5033130;28;20449;-58
2023/09/09 07:40:40;;;;;;;7.40;6.70;;;21.80;95.20;;;;;;5033021;28;20540;-59
2023/09/09 07:43:07;;;;;;;6.40;5.80;;;21.90;94.80;;;;;;5033244;28;20440;-59
2023/09/09 07:45:34;;;;;;;7.30;5.70;;;22.00;94.40;;;;;;5032940;28;20456;-58
2023/09/09 07:48:00;;;;;;;6.43;5.83;;;22.10;94.00;;;;;;5033157;28;20452;-58
2023/09/09 07:50:27;;;;;;;10.43;7.20;;;22.20;93.60;;;;;;5033005;28;20461;-58
2023/09/09 07:52:54;;;;;;;7.87;7.07;;;22.30;93.40;;;;;;5032976;28;20512;-58
2023/09/09 07:55:22;;;;;;;6.57;5.97;;;22.40;93.20;;;;;;5032942;28;20440;-58
2023/09/09 07:57:49;;;;;;;6.20;5.70;;;22.40;92.80;;;;;;5032842;28;20929;-60
2023/09/09 08:00:16;;;;;;;6.70;6.10;;;22.50;92.60;;;;;;5033156;28;20472;-59
2023/09/09 08:02:42;;;;;;;8.17;5.80;;;22.60;92.30;;;;;;5033129;28;20460;-60
2023/09/09 08:05:10;;;;;;;11.43;6.70;;;22.70;92.10;;;;;;5032845;28;20445;-60
2023/09/09 08:07:36;;;;;;;9.03;6.70;;;22.80;92.00;;;;;;5033017;28;20500;-59
2023/09/09 08:10:03;;;;;;;6.97;6.27;;;22.80;91.70;;;;;;5032831;28;20463;-59
2023/09/09 08:12:32;;;;;;;8.80;6.53;;;22.90;91.50;;;;;;5033163;28;20487;-59
2023/09/09 08:15:05;;;;;;;5.83;5.33;;;23.00;91.30;;;;;;5032704;28;20943;-61
2023/09/09 08:17:32;;;;;;;10.73;6.50;;;23.10;91.00;;;;;;5033131;28;20946;-59
2023/09/09 08:19:59;;;;;;;7.37;5.57;;;23.20;90.80;;;;;;5033397;28;21005;-59
2023/09/09 08:22:28;;;;;;;7.33;5.47;;;23.30;90.60;;;;;;5033515;28;20444;-59
2023/09/09 08:24:55;;;;;;;7.17;6.47;;;23.50;90.30;;;;;;5033167;28;20445;-59
2023/09/09 08:27:22;;;;;;;7.90;5.90;;;23.60;89.80;;;;;;5032910;28;20464;-60
2023/09/09 08:29:50;;;;;;;6.90;5.67;;;23.70;88.80;;;;;;5032460;28;20471;-60
2023/09/09 08:32:16;;;;;;;7.80;5.60;;;23.90;87.90;;;;;;5032664;28;20487;-59
2023/09/09 08:34:43;;;;;;;5.90;5.30;;;24.00;87.00;;;;;;5032348;28;20938;-59
2023/09/09 08:37:10;;;;;;;6.33;5.73;;;24.10;86.20;;;;;;5032982;28;20445;-59
2023/09/09 08:39:37;;;;;;;7.03;5.70;;;24.20;85.20;;;;;;5033074;28;20468;-59
2023/09/09 08:42:16;;;;;;;6.93;5.70;;;24.30;84.20;;;;;;5032622;28;20441;-60
2023/09/09 08:44:59;;;;;;;9.17;5.50;;;24.40;83.20;;;;;;5033179;28;20421;-60
2023/09/09 08:47:29;;;;;;;6.13;5.53;;;24.50;82.10;;;;;;5032727;28;20425;-58
2023/09/09 08:49:59;;;;;;;6.37;5.67;;;24.70;81.60;;;;;;5032278;28;20471;-59
2023/09/09 08:52:28;;;;;;;10.30;5.70;;;24.70;80.70;;;;;;5033316;28;20469;-59
2023/09/09 08:54:55;;;;;;;7.13;5.47;;;24.80;79.90;;;;;;5032433;28;20519;-59
2023/09/09 08:57:22;;;;;;;6.33;5.50;;;24.90;79.20;;;;;;5033193;28;20444;-59
2023/09/09 08:59:52;;;;;;;5.80;4.83;;;25.10;79.20;;;;;;5035757;28;20467;-59
2023/09/09 09:02:18;;;;;;;9.20;5.77;;;25.10;77.80;;;;;;5036152;28;20452;-59
2023/09/09 09:04:46;;;;;;;6.13;5.60;;;25.20;77.20;;;;;;5036319;28;20467;-59
2023/09/09 09:07:14;;;;;;;7.00;5.87;;;25.30;76.40;;;;;;5035970;28;20449;-59
2023/09/09 09:09:40;;;;;;;7.10;5.93;;;25.40;75.70;;;;;;5035931;28;20472;-59
2023/09/09 09:12:08;;;;;;;6.20;5.60;;;25.50;75.10;;;;;;5036212;28;20487;-58
2023/09/09 09:14:35;;;;;;;6.17;5.30;;;25.70;74.50;;;;;;5036142;28;20474;-59
2023/09/09 09:17:04;;;;;;;5.67;5.17;;;25.80;73.80;;;;;;5038663;28;20452;-59
2023/09/09 09:19:31;;;;;;;6.33;5.73;;;25.90;72.90;;;;;;5037294;28;20472;-59
2023/09/09 09:22:00;;;;;;;6.43;5.27;;;26.00;72.00;;;;;;5036419;28;20418;-59
2023/09/09 09:24:28;;;;;;;8.20;5.70;;;26.10;71.20;;;;;;5035975;28;20441;-60
2023/09/09 09:26:55;;;;;;;6.90;6.20;;;26.10;70.60;;;;;;5036239;28;20444;-59
2023/09/09 09:29:22;;;;;;;7.50;5.73;;;26.20;70.20;;;;;;5036892;28;20598;-59
2023/09/09 09:31:52;;;;;;;6.93;6.00;;;26.30;69.90;;;;;;5037047;28;21024;-60
2023/09/09 09:34:22;;;;;;;5.60;5.10;;;26.30;69.60;;;;;;5037368;28;20421;-59
2023/09/09 09:36:48;;;;;;;8.23;6.10;;;26.40;69.40;;;;;;5037142;28;20805;-60
2023/09/09 09:39:15;;;;;;;5.83;5.20;;;26.50;68.90;;;;;;5036987;28;20445;-59
2023/09/09 09:41:43;;;;;;;6.00;5.50;;;26.60;68.50;;;;;;5037233;28;20449;-61
2023/09/09 09:44:18;;;;;;;6.43;5.90;;;26.70;67.90;;;;;;5037360;28;20448;-60
2023/09/09 09:46:59;;;;;;;7.43;6.00;;;26.80;67.30;;;;;;5036597;28;20479;-60
2023/09/09 09:49:35;;;;;;;5.97;5.37;;;26.80;66.60;;;;;;5037537;28;20599;-59
2023/09/09 09:52:02;;;;;;;6.90;5.27;;;26.90;66.10;;;;;;5036477;28;20970;-60
2023/09/09 09:54:29;;;;;;;6.33;5.70;;;27.00;65.70;;;;;;5035201;28;20938;-60
2023/09/09 09:56:58;;;;;;;6.70;6.10;;;27.20;65.50;;;;;;5035123;28;20445;-59
2023/09/09 09:59:28;;;;;;;6.90;5.30;;;27.30;65.00;;;;;;5035037;28;20468;-60
2023/09/09 10:01:55;;;;;;;6.23;5.50;;;27.40;64.60;;;;;;5035408;28;20444;-60
2023/09/09 10:04:23;;;;;;;6.63;5.97;;;27.50;64.10;;;;;;5035261;28;20536;-60
2023/09/09 10:06:55;;;;;;;5.63;5.10;;;27.50;63.70;;;;;;5035459;28;20449;-59
2023/09/09 10:09:31;;;;;;;6.30;5.30;;;27.60;63.30;;;;;;5035619;28;20530;-59
2023/09/09 10:12:03;;;;;;;5.77;5.27;;;27.70;62.80;;;;;;5035338;28;20471;-59
2023/09/09 10:14:31;;;;;;;8.43;4.97;;;27.70;62.20;;;;;;5035493;28;20465;-60
2023/09/09 10:16:58;;;;;;;4.67;4.27;;;27.80;61.50;;;;;;5035380;28;20437;-59
2023/09/09 10:19:27;;;;;;;5.33;4.87;;;27.90;61.00;;;;;;5034836;28;20856;-59
2023/09/09 10:21:56;;;;;;;5.43;4.90;;;27.90;60.40;;;;;;5035314;28;20429;-60
2023/09/09 10:24:23;;;;;;;5.13;4.53;;;28.00;59.50;;;;;;5035251;28;20456;-59
2023/09/09 10:26:50;;;;;;;5.60;5.10;;;28.00;59.10;;;;;;5034959;28;20448;-60
2023/09/09 10:29:18;;;;;;;7.60;5.50;;;28.10;58.90;;;;;;5034755;28;20464;-62
2023/09/09 10:31:46;;;;;;;6.53;4.80;;;28.20;58.50;;;;;;5034717;28;20448;-60
2023/09/09 10:34:15;;;;;;;5.23;4.30;;;28.30;58.10;;;;;;5034834;28;20448;-60
2023/09/09 10:36:44;;;;;;;5.37;4.57;;;28.40;57.80;;;;;;5035039;28;20698;-60
2023/09/09 10:39:15;;;;;;;6.10;5.50;;;28.40;57.40;;;;;;5034871;28;20433;-60
2023/09/09 10:41:43;;;;;;;6.37;5.20;;;28.40;57.10;;;;;;5035381;28;20422;-59
2023/09/09 10:44:09;;;;;;;6.13;5.40;;;28.60;56.60;;;;;;5035839;28;20443;-60
2023/09/09 10:46:37;;;;;;;5.87;4.90;;;28.60;56.20;;;;;;5036315;28;20433;-59
2023/09/09 10:49:04;;;;;;;4.60;4.17;;;28.70;55.70;;;;;;5036609;28;20487;-59
2023/09/09 10:51:44;;;;;;;9.57;4.37;;;28.80;55.40;;;;;;5039932;28;20441;-59
2023/09/09 10:54:14;;;;;;;9.07;5.27;;;28.90;55.10;;;;;;5034214;28;20495;-59
2023/09/09 10:56:45;;;;;;;4.50;4.10;;;29.00;54.80;;;;;;5034047;28;20479;-59
2023/09/09 10:59:17;;;;;;;5.27;4.87;;;29.00;54.30;;;;;;5033781;28;20891;-60
2023/09/09 11:01:44;;;;;;;4.73;4.33;;;29.10;54.00;;;;;;5034040;28;20451;-60
2023/09/09 11:04:23;;;;;;;6.10;5.23;;;29.10;53.50;;;;;;5033717;28;20437;-60
2023/09/09 11:07:08;;;;;;;5.43;4.47;;;29.10;53.00;;;;;;5034501;28;20436;-60
2023/09/09 11:09:37;;;;;;;5.30;4.90;;;29.20;52.80;;;;;;5033886;28;20997;-60
2023/09/09 11:12:14;;;;;;;8.23;5.00;;;29.30;52.50;;;;;;5034084;28;20440;-60
2023/09/09 11:14:57;;;;;;;6.30;3.80;;;29.30;52.00;;;;;;5033856;28;20437;-60
2023/09/09 11:17:24;;;;;;;5.33;4.57;;;29.40;51.20;;;;;;5033719;28;20512;-60
2023/09/09 11:19:50;;;;;;;5.17;4.63;;;29.40;49.80;;;;;;5032795;28;20480;-59
2023/09/09 11:22:19;;;;;;;5.07;4.40;;;29.50;48.80;;;;;;5034081;28;20444;-60
2023/09/09 11:24:47;;;;;;;4.33;4.00;;;29.50;47.60;;;;;;5033804;28;20441;-58
2023/09/09 11:27:15;;;;;;;6.10;4.87;;;29.50;46.90;;;;;;5033479;28;20441;-60
2023/09/09 11:29:50;;;;;;;5.07;4.50;;;29.50;46.30;;;;;;5033567;28;20469;-60
2023/09/09 11:32:24;;;;;;;4.83;4.40;;;29.50;46.00;;;;;;5033637;28;20417;-60
2023/09/09 11:34:53;;;;;;;4.13;3.73;;;29.60;45.90;;;;;;5033650;28;20455;-60
2023/09/09 11:37:19;;;;;;;5.67;4.63;;;29.70;45.60;;;;;;5033406;28;20441;-61
2023/09/09 11:39:47;;;;;;;4.80;4.20;;;29.60;45.50;;;;;;5032942;28;20475;-60
2023/09/09 11:42:14;;;;;;;4.87;4.47;;;29.60;45.60;;;;;;5032883;28;20456;-60
2023/09/09 11:44:42;;;;;;;4.70;4.30;;;29.70;45.90;;;;;;5033405;28;20433;-60
2023/09/09 11:47:09;;;;;;;5.70;4.27;;;29.80;46.00;;;;;;5033101;28;20449;-58
2023/09/09 11:49:38;;;;;;;4.70;4.13;;;29.80;45.80;;;;;;5033079;28;20468;-59
2023/09/09 11:52:05;;;;;;;5.97;4.43;;;29.80;45.50;;;;;;5032929;28;20455;-59
2023/09/09 11:54:32;;;;;;;4.67;4.27;;;29.90;45.30;;;;;;5033000;28;20575;-61
2023/09/09 11:57:06;;;;;;;5.37;4.60;;;29.90;45.40;;;;;;5033551;28;20524;-59
2023/09/09 11:59:43;;;;;;;4.50;3.90;;;29.90;45.10;;;;;;5033661;28;20506;-60
2023/09/09 12:02:17;;;;;;;4.33;3.90;;;29.90;44.80;;;;;;5033060;28;20825;-60
2023/09/09 12:04:53;;;;;;;4.63;4.23;;;29.90;44.10;;;;;;5033062;28;20740;-59
2023/09/09 12:07:20;;;;;;;4.30;3.90;;;29.80;43.30;;;;;;5033349;28;20436;-59
2023/09/09 12:09:47;;;;;;;4.80;4.10;;;29.80;43.40;;;;;;5033341;28;20460;-60
2023/09/09 12:12:16;;;;;;;4.30;3.90;;;29.90;43.40;;;;;;5033485;28;20437;-59
2023/09/09 12:14:43;;;;;;;4.63;4.20;;;29.80;42.90;;;;;;5033677;28;20436;-59
2023/09/09 12:17:10;;;;;;;4.03;3.73;;;29.90;43.00;;;;;;5034099;28;20463;-57
2023/09/09 12:19:37;;;;;;;5.17;4.17;;;29.90;42.60;;;;;;5032799;28;20544;-59
2023/09/09 12:22:04;;;;;;;4.83;4.43;;;30.00;41.70;;;;;;5033444;28;20425;-59
2023/09/09 12:24:40;;;;;;;5.07;4.23;;;30.00;41.70;;;;;;5032884;28;20953;-59
2023/09/09 12:27:07;;;;;;;4.67;4.27;;;30.00;42.00;;;;;;5032837;28;20432;-60
2023/09/09 12:29:45;;;;;;;13.13;4.23;;;30.10;42.30;;;;;;5032565;28;20463;-60
2023/09/09 12:32:11;;;;;;;4.80;4.27;;;30.20;42.20;;;;;;5033940;28;20452;-59
2023/09/09 12:34:38;;;;;;;4.80;3.90;;;30.30;42.30;;;;;;5036907;28;20488;-60
2023/09/09 12:37:05;;;;;;;4.13;3.73;;;30.40;42.20;;;;;;5037446;28;20467;-61
2023/09/09 12:39:32;;;;;;;4.13;3.70;;;30.40;41.90;;;;;;5036826;28;20464;-60
2023/09/09 12:42:04;;;;;;;5.73;4.13;;;30.30;41.00;;;;;;5037686;28;20441;-57
2023/09/09 12:44:32;;;;;;;3.93;3.63;;;30.20;41.50;;;;;;5036959;28;20791;-59
2023/09/09 12:47:03;;;;;;;3.50;3.20;;;30.20;41.00;;;;;;5037470;28;20441;-60
2023/09/09 12:49:30;;;;;;;4.03;3.63;;;30.30;40.90;;;;;;5037103;28;20460;-59